Impacts METAR Board INFO
IDs:

KMSP - Minneapolis-St Paul, MN, US

Updated at: 0219 UTC 11 Dec 2017
Potential Impact None Slight Moderate High
Time10/14Z 10/15Z 10/16Z 10/17Z 10/18Z 10/19Z 10/20Z 10/21Z 10/22Z 10/23Z 11/00Z 11/01Z 11/02Z
VIS10 10 10 10 10 10 10 10 10 10 10 8 10
CIG25 25 23 19 18 19 20 110 -- -- -- 250 250
CoverOVCOVCOVCOVCOVCOVCOVCBKNFEWFEWFEWBKNBKN
FltCatMVFRMVFRMVFRMVFRMVFRMVFRMVFRVFRVFRVFRVFRVFRVFR
WX--------------------------
WDir330320330350320330310300330000200
WSpd9 11 10 12 9 10 10 7 4 0 0 0 4
WGst-- -- -- -- -- -- -- -- -- -- -- -- --
Raw hourly METARs
KMSP 101353Z 33009KT 10SM OVC025 M03/M06 A2993 RMK AO2 SLP149 T10331056
KMSP 101453Z 32011KT 10SM OVC025 M03/M06 A2996 RMK AO2 SLP157 T10281056 53025
KMSP 101553Z 33010KT 10SM OVC023 M02/M05 A2998 RMK AO2 SLP164 T10221050
KMSP 101653Z 35012KT 10SM OVC019 M02/M06 A3001 RMK AO2 SLP173 T10221056
KMSP 101753Z COR 32009KT 10SM OVC018 M02/M06 A3000 RMK AO2 SLP170 4/002 T10221056 11017 21044 50013
KMSP 101853Z 33010KT 10SM OVC019 M02/M06 A3002 RMK AO2 SLP179 T10171056
KMSP 101953Z 31010KT 10SM OVC020 M02/M06 A3001 RMK AO2 SLP177 T10171056
KMSP 102053Z 30007KT 10SM SCT021 BKN110 M02/M06 A3002 RMK AO2 SLP179 T10171056 51008
KMSP 102153Z 33004KT 10SM FEW021 FEW110 M02/M06 A3003 RMK AO2 SLP182 T10171056
KMSP 102253Z 00000KT 10SM FEW110 FEW250 M03/M06 A3005 RMK AO2 SLP188 T10281061
KMSP 102353Z 00000KT 10SM FEW250 M03/M06 A3005 RMK AO2 SLP190 4/002 T10281061 11017 21039 52011
KMSP 110053Z 00000KT 8SM FEW220 BKN250 M04/M07 A3005 RMK AO2 SLP187 T10391067
KMSP 110153Z 20004KT 10SM FEW220 BKN250 M03/M06 A3003 RMK AO2 SLP181 T10281061